Time;durP1;ratioP1;P1;durP2;ratioP2;P2;SDS_P1;SDS_P2;PMS_P1;PMS_P2;Temp;Humidity;BMP_temperature;BMP_pressure;BME280_temperature;BME280_humidity;BME280_pressure;Samples;Min_cycle;Max_cycle;Signal;HPM_P1;HPM_P2
2023/07/02 00:01:34;;;;;;;0.10;0.10;;;;;;;;;;5129554;27;20061;-50
2023/07/02 00:04:00;;;;;;;0.10;0.10;;;;;;;;;;5129733;28;20047;-49
2023/07/02 00:06:26;;;;;;;0.10;0.10;;;;;;;;;;5128940;28;20127;-49
2023/07/02 00:08:52;;;;;;;0.10;0.10;;;;;;;;;;5129176;28;20047;-50
2023/07/02 00:11:17;;;;;;;0.10;0.10;;;;;;;;;;5129207;27;20051;-50
2023/07/02 00:13:43;;;;;;;0.10;0.10;;;;;;;;;;5129768;28;20055;-50
2023/07/02 00:16:08;;;;;;;0.10;0.10;;;;;;;;;;5128316;28;20448;-50
2023/07/02 00:18:34;;;;;;;0.20;0.20;;;;;;;;;;5129338;28;20166;-50
2023/07/02 00:21:02;;;;;;;0.10;0.10;;;;;;;;;;5129174;28;20040;-50
2023/07/02 00:23:28;;;;;;;0.10;0.10;;;;;;;;;;5111568;28;20089;-48
2023/07/02 00:25:54;;;;;;;0.10;0.10;;;;;;;;;;5129344;28;20071;-50
2023/07/02 00:28:19;;;;;;;0.10;0.10;;;;;;;;;;5129041;28;20047;-49
2023/07/02 00:30:45;;;;;;;0.10;0.10;;;;;;;;;;5129968;27;20047;-49
2023/07/02 00:33:10;;;;;;;0.10;0.10;;;;;;;;;;5150403;27;20204;-49
2023/07/02 00:35:36;;;;;;;0.10;0.10;;;;;;;;;;5131575;27;20043;-51
2023/07/02 00:38:02;;;;;;;0.10;0.10;;;;;;;;;;5110811;28;20075;-49
2023/07/02 00:40:28;;;;;;;0.10;0.10;;;;;;;;;;5128641;28;20475;-49
2023/07/02 00:42:53;;;;;;;0.10;0.10;;;;;;;;;;5129113;28;20049;-48
2023/07/02 00:45:19;;;;;;;0.10;0.10;;;;;;;;;;5129563;27;20043;-49
2023/07/02 00:47:44;;;;;;;0.10;0.10;;;;;;;;;;5129352;27;20039;-50
2023/07/02 00:50:11;;;;;;;0.10;0.10;;;;;;;;;;5128769;27;20043;-49
2023/07/02 00:52:36;;;;;;;0.10;0.10;;;;;;;;;;5129738;28;20376;-50
2023/07/02 00:55:02;;;;;;;0.10;0.10;;;;;;;;;;5129324;28;20054;-49
2023/07/02 00:57:29;;;;;;;0.10;0.10;;;;;;;;;;5129371;28;20554;-49
2023/07/02 00:59:56;;;;;;;0.10;0.10;;;;;;;;;;5128593;28;20120;-50
2023/07/02 01:02:25;;;;;;;0.10;0.10;;;;;;;;;;5129372;27;20043;-50
2023/07/02 01:04:52;;;;;;;0.10;0.10;;;;;;;;;;5129671;28;20047;-49
2023/07/02 01:07:17;;;;;;;0.10;0.10;;;;;;;;;;5129024;27;20138;-48
2023/07/02 01:09:43;;;;;;;0.10;0.10;;;;;;;;;;5128344;28;20116;-50
2023/07/02 01:12:09;;;;;;;0.10;0.10;;;;;;;;;;5110805;28;20047;-50
2023/07/02 01:14:37;;;;;;;0.10;0.10;;;;;;;;;;5110469;28;20043;-50
2023/07/02 01:17:04;;;;;;;0.10;0.10;;;;;;;;;;5110594;28;20082;-49
2023/07/02 01:19:51;;;;;;;0.10;0.10;;;;;;;;;;5128027;28;20085;-50
2023/07/02 01:22:24;;;;;;;0.10;0.10;;;;;;;;;;5107415;28;20086;-49
2023/07/02 01:24:50;;;;;;;0.10;0.10;;;;;;;;;;5108120;28;20067;-49
2023/07/02 01:27:16;;;;;;;0.10;0.10;;;;;;;;;;5089940;28;20098;-50
2023/07/02 01:29:42;;;;;;;0.10;0.10;;;;;;;;;;5125399;27;20047;-49
2023/07/02 01:32:08;;;;;;;0.10;0.10;;;;;;;;;;5129073;27;20051;-50
2023/07/02 01:34:34;;;;;;;0.10;0.10;;;;;;;;;;5129093;28;20509;-49
2023/07/02 01:37:00;;;;;;;0.10;0.10;;;;;;;;;;5128627;28;20051;-49
2023/07/02 01:39:26;;;;;;;0.10;0.10;;;;;;;;;;5128498;28;20054;-50
2023/07/02 01:41:52;;;;;;;0.10;0.10;;;;;;;;;;5129122;28;20051;-49
2023/07/02 01:44:18;;;;;;;0.10;0.10;;;;;;;;;;5110697;28;20096;-48
2023/07/02 01:46:44;;;;;;;0.10;0.10;;;;;;;;;;5128749;28;20051;-50
2023/07/02 01:49:10;;;;;;;0.10;0.10;;;;;;;;;;5110802;28;20111;-50
2023/07/02 01:51:35;;;;;;;0.10;0.10;;;;;;;;;;5128992;28;20376;-49
2023/07/02 01:54:01;;;;;;;0.10;0.10;;;;;;;;;;5128955;28;20142;-50
2023/07/02 01:56:27;;;;;;;0.10;0.10;;;;;;;;;;5128417;28;20054;-48
2023/07/02 01:58:53;;;;;;;0.10;0.10;;;;;;;;;;5128550;28;20047;-50
2023/07/02 02:01:18;;;;;;;0.10;0.10;;;;;;;;;;5127821;27;20062;-49
2023/07/02 02:03:44;;;;;;;0.10;0.10;;;;;;;;;;5128936;27;20043;-49
2023/07/02 02:06:09;;;;;;;0.10;0.10;;;;;;;;;;5128710;28;20051;-50
2023/07/02 02:08:35;;;;;;;0.10;0.10;;;;;;;;;;5128049;27;20043;-51
2023/07/02 02:11:00;;;;;;;0.20;0.20;;;;;;;;;;5127609;27;20051;-50
2023/07/02 02:13:26;;;;;;;0.10;0.10;;;;;;;;;;5128424;28;20071;-49
2023/07/02 02:15:52;;;;;;;0.10;0.10;;;;;;;;;;5127931;28;20111;-50
2023/07/02 02:18:17;;;;;;;0.10;0.10;;;;;;;;;;5127939;28;20404;-50
2023/07/02 02:20:43;;;;;;;0.10;0.10;;;;;;;;;;5126597;27;20534;-49
2023/07/02 02:23:08;;;;;;;0.10;0.10;;;;;;;;;;5128328;28;20051;-49
2023/07/02 02:25:34;;;;;;;0.10;0.10;;;;;;;;;;5127742;28;20051;-48
2023/07/02 02:27:59;;;;;;;0.10;0.10;;;;;;;;;;5127491;28;20395;-51
2023/07/02 02:30:25;;;;;;;0.10;0.10;;;;;;;;;;5120048;27;20043;-49
2023/07/02 02:32:50;;;;;;;0.10;0.10;;;;;;;;;;5127902;28;20043;-49
2023/07/02 02:35:16;;;;;;;0.10;0.10;;;;;;;;;;5128082;28;20055;-49
2023/07/02 02:37:41;;;;;;;0.10;0.10;;;;;;;;;;5127255;28;20039;-49
2023/07/02 02:40:09;;;;;;;0.10;0.10;;;;;;;;;;5126515;27;20047;-50
2023/07/02 02:42:35;;;;;;;0.10;0.10;;;;;;;;;;5127944;28;20074;-49
2023/07/02 02:45:00;;;;;;;0.10;0.10;;;;;;;;;;5127459;28;20199;-50
2023/07/02 02:47:26;;;;;;;0.10;0.10;;;;;;;;;;5126928;28;20062;-49
2023/07/02 02:49:51;;;;;;;0.10;0.10;;;;;;;;;;5127637;28;20057;-50
2023/07/02 02:52:18;;;;;;;0.10;0.10;;;;;;;;;;5127752;28;20047;-50
2023/07/02 02:54:43;;;;;;;0.10;0.10;;;;;;;;;;5127856;28;20047;-50
2023/07/02 02:57:09;;;;;;;0.10;0.10;;;;;;;;;;5127556;28;20130;-49
2023/07/02 02:59:34;;;;;;;0.10;0.10;;;;;;;;;;5108244;28;20407;-50
2023/07/02 03:02:00;;;;;;;0.10;0.10;;;;;;;;;;5127442;27;20047;-50
2023/07/02 03:04:26;;;;;;;0.10;0.10;;;;;;;;;;5127345;28;20051;-50
2023/07/02 03:06:52;;;;;;;0.10;0.10;;;;;;;;;;5127051;27;20472;-50
2023/07/02 03:09:19;;;;;;;0.10;0.10;;;;;;;;;;5127236;27;20054;-50
2023/07/02 03:11:45;;;;;;;0.10;0.10;;;;;;;;;;5127252;27;20047;-49
2023/07/02 03:14:10;;;;;;;0.10;0.10;;;;;;;;;;5127381;28;20702;-50
2023/07/02 03:16:36;;;;;;;0.10;0.10;;;;;;;;;;5127021;28;20100;-49
2023/07/02 03:19:02;;;;;;;0.10;0.10;;;;;;;;;;5108445;28;20445;-49
2023/07/02 03:21:29;;;;;;;0.10;0.10;;;;;;;;;;5126276;28;20487;-49
2023/07/02 03:23:55;;;;;;;0.10;0.10;;;;;;;;;;5125476;28;20047;-50
2023/07/02 03:26:21;;;;;;;0.10;0.10;;;;;;;;;;5125757;28;20104;-49
2023/07/02 03:28:47;;;;;;;0.10;0.10;;;;;;;;;;5126897;27;20082;-50
2023/07/02 03:31:12;;;;;;;0.15;0.15;;;;;;;;;;5126650;27;20055;-50
2023/07/02 03:33:38;;;;;;;0.10;0.10;;;;;;;;;;5129492;28;20138;-50
2023/07/02 03:36:04;;;;;;;0.10;0.10;;;;;;;;;;5130870;28;20054;-49
2023/07/02 03:38:29;;;;;;;0.10;0.10;;;;;;;;;;5130466;28;20154;-49
2023/07/02 03:40:55;;;;;;;0.10;0.10;;;;;;;;;;5129514;28;20051;-50
2023/07/02 03:43:20;;;;;;;0.10;0.10;;;;;;;;;;5130621;28;20047;-50
2023/07/02 03:45:46;;;;;;;0.10;0.10;;;;;;;;;;5130453;28;20096;-49
2023/07/02 03:48:11;;;;;;;0.10;0.10;;;;;;;;;;5129935;28;20054;-49
2023/07/02 03:50:37;;;;;;;0.10;0.10;;;;;;;;;;5130085;27;20070;-49
2023/07/02 03:53:02;;;;;;;0.20;0.20;;;;;;;;;;5130491;28;20520;-49
2023/07/02 03:55:28;;;;;;;0.10;0.10;;;;;;;;;;5130434;28;20090;-49
2023/07/02 03:57:54;;;;;;;0.10;0.10;;;;;;;;;;5129900;28;20043;-49
2023/07/02 04:00:19;;;;;;;0.10;0.10;;;;;;;;;;5129700;27;20502;-49
2023/07/02 04:02:45;;;;;;;0.10;0.10;;;;;;;;;;5130377;28;20057;-50
2023/07/02 04:05:11;;;;;;;0.20;0.20;;;;;;;;;;5129962;28;20062;-50
2023/07/02 04:07:37;;;;;;;0.10;0.10;;;;;;;;;;5129599;27;20055;-50
2023/07/02 04:10:02;;;;;;;0.10;0.10;;;;;;;;;;5129642;27;20067;-50
2023/07/02 04:12:28;;;;;;;0.10;0.10;;;;;;;;;;5130234;28;20050;-49
2023/07/02 04:14:54;;;;;;;0.10;0.10;;;;;;;;;;5130120;28;20051;-50
2023/07/02 04:17:19;;;;;;;0.10;0.10;;;;;;;;;;5130332;28;20055;-49
2023/07/02 04:19:45;;;;;;;0.10;0.10;;;;;;;;;;5129345;28;20051;-50
2023/07/02 04:22:11;;;;;;;0.10;0.10;;;;;;;;;;5130366;28;20564;-50
2023/07/02 04:24:36;;;;;;;0.10;0.10;;;;;;;;;;5130063;28;20553;-50
2023/07/02 04:27:02;;;;;;;0.10;0.10;;;;;;;;;;5130137;28;20054;-49
2023/07/02 04:29:48;;;;;;;0.10;0.10;;;;;;;;;;5122542;27;20042;-50
2023/07/02 04:32:13;;;;;;;0.10;0.10;;;;;;;;;;5130220;28;20059;-50
2023/07/02 04:34:39;;;;;;;0.10;0.10;;;;;;;;;;5130188;28;20479;-50
2023/07/02 04:37:04;;;;;;;0.10;0.10;;;;;;;;;;5130099;28;20047;-50
2023/07/02 04:39:30;;;;;;;0.10;0.10;;;;;;;;;;5110544;28;20069;-49
2023/07/02 04:41:56;;;;;;;0.10;0.10;;;;;;;;;;5129196;28;20137;-49
2023/07/02 04:44:28;;;;;;;0.10;0.10;;;;;;;;;;5129539;27;20050;-50
2023/07/02 04:46:58;;;;;;;0.35;0.20;;;;;;;;;;5129500;28;20040;-51
2023/07/02 04:49:23;;;;;;;0.10;0.10;;;;;;;;;;5129565;28;20082;-50
2023/07/02 04:51:49;;;;;;;0.20;0.20;;;;;;;;;;5129643;27;20051;-50
2023/07/02 04:54:15;;;;;;;0.10;0.10;;;;;;;;;;5130055;28;20171;-50
2023/07/02 04:56:40;;;;;;;0.10;0.10;;;;;;;;;;5130069;28;20250;-50
2023/07/02 04:59:06;;;;;;;0.10;0.10;;;;;;;;;;5129674;28;20047;-50
2023/07/02 05:01:31;;;;;;;0.10;0.10;;;;;;;;;;5129594;27;20046;-50
2023/07/02 05:03:57;;;;;;;0.10;0.10;;;;;;;;;;5129714;28;20410;-49
2023/07/02 05:06:22;;;;;;;0.10;0.10;;;;;;;;;;5129471;28;20419;-50
2023/07/02 05:08:48;;;;;;;0.10;0.10;;;;;;;;;;5129594;28;20074;-50
2023/07/02 05:11:13;;;;;;;0.10;0.10;;;;;;;;;;5128644;28;20082;-50
2023/07/02 05:13:39;;;;;;;0.10;0.10;;;;;;;;;;5129677;28;20104;-50
2023/07/02 05:16:04;;;;;;;0.10;0.10;;;;;;;;;;5129267;28;20068;-49
2023/07/02 05:18:30;;;;;;;0.10;0.10;;;;;;;;;;5129113;28;20054;-50
2023/07/02 05:20:55;;;;;;;0.10;0.10;;;;;;;;;;5129042;28;20039;-50
2023/07/02 05:23:21;;;;;;;0.10;0.10;;;;;;;;;;5129369;28;20055;-50
2023/07/02 05:25:46;;;;;;;0.10;0.10;;;;;;;;;;5128621;28;20039;-50
2023/07/02 05:28:12;;;;;;;0.10;0.10;;;;;;;;;;5120410;27;20313;-50
2023/07/02 05:30:37;;;;;;;0.10;0.10;;;;;;;;;;5137180;27;20458;-50
2023/07/02 05:33:03;;;;;;;0.10;0.10;;;;;;;;;;5129396;28;20456;-50
2023/07/02 05:35:28;;;;;;;0.10;0.10;;;;;;;;;;5128993;28;20555;-50
2023/07/02 05:37:54;;;;;;;0.10;0.10;;;;;;;;;;5128485;28;20546;-50
2023/07/02 05:40:19;;;;;;;0.10;0.10;;;;;;;;;;5128215;28;20503;-48
2023/07/02 05:42:45;;;;;;;0.10;0.10;;;;;;;;;;5129169;28;20047;-50
2023/07/02 05:45:11;;;;;;;0.10;0.10;;;;;;;;;;5127828;27;20047;-49
2023/07/02 05:47:36;;;;;;;0.10;0.10;;;;;;;;;;5128632;27;20046;-50
2023/07/02 05:50:02;;;;;;;0.10;0.10;;;;;;;;;;5128129;27;20047;-49
2023/07/02 05:52:27;;;;;;;0.10;0.10;;;;;;;;;;5128207;28;20073;-48
2023/07/02 05:54:53;;;;;;;0.10;0.10;;;;;;;;;;5127608;27;20051;-50
2023/07/02 05:57:18;;;;;;;0.10;0.10;;;;;;;;;;5128450;27;20138;-48
2023/07/02 05:59:44;;;;;;;0.10;0.10;;;;;;;;;;5127772;27;20395;-49
2023/07/02 06:02:09;;;;;;;0.15;0.15;;;;;;;;;;5128428;27;20044;-50
2023/07/02 06:04:35;;;;;;;0.10;0.10;;;;;;;;;;5128279;28;20062;-50
2023/07/02 06:07:01;;;;;;;0.10;0.10;;;;;;;;;;5128251;28;20044;-50
2023/07/02 06:09:26;;;;;;;0.10;0.10;;;;;;;;;;5112722;28;20384;-49
2023/07/02 06:11:51;;;;;;;0.10;0.10;;;;;;;;;;5127753;28;20047;-49
2023/07/02 06:14:18;;;;;;;0.10;0.10;;;;;;;;;;5127928;28;20258;-50
2023/07/02 06:16:43;;;;;;;0.10;0.10;;;;;;;;;;5127500;28;20043;-49
2023/07/02 06:19:09;;;;;;;0.10;0.10;;;;;;;;;;5127834;28;20050;-48
2023/07/02 06:21:35;;;;;;;0.10;0.10;;;;;;;;;;5127695;28;20055;-48
2023/07/02 06:24:01;;;;;;;0.10;0.10;;;;;;;;;;5127631;28;20043;-49
2023/07/02 06:26:27;;;;;;;0.10;0.10;;;;;;;;;;5127280;28;20075;-49
2023/07/02 06:28:53;;;;;;;0.10;0.10;;;;;;;;;;5126012;27;20548;-48
2023/07/02 06:31:18;;;;;;;0.20;0.20;;;;;;;;;;5126685;27;20502;-48
2023/07/02 06:33:44;;;;;;;0.10;0.10;;;;;;;;;;5127646;28;20039;-49
2023/07/02 06:36:10;;;;;;;0.20;0.20;;;;;;;;;;5126640;28;20050;-48
2023/07/02 06:38:38;;;;;;;0.10;0.10;;;;;;;;;;5115494;28;20438;-49
2023/07/02 06:41:04;;;;;;;0.10;0.10;;;;;;;;;;5126260;27;20035;-50
2023/07/02 06:43:29;;;;;;;0.10;0.10;;;;;;;;;;5126894;28;20047;-49
2023/07/02 06:45:55;;;;;;;0.10;0.10;;;;;;;;;;5126057;28;20042;-48
2023/07/02 06:48:21;;;;;;;0.10;0.10;;;;;;;;;;5126604;28;20051;-49
2023/07/02 06:50:47;;;;;;;0.10;0.10;;;;;;;;;;5126126;28;20079;-49
2023/07/02 06:53:13;;;;;;;0.10;0.10;;;;;;;;;;5126265;28;20087;-49
2023/07/02 06:55:39;;;;;;;0.10;0.10;;;;;;;;;;5126950;27;20119;-50
2023/07/02 06:58:05;;;;;;;0.10;0.10;;;;;;;;;;5126479;27;20081;-49
2023/07/02 07:00:32;;;;;;;0.10;0.10;;;;;;;;;;5126112;27;20074;-49
2023/07/02 07:02:57;;;;;;;0.10;0.10;;;;;;;;;;5126900;28;20047;-50
2023/07/02 07:05:23;;;;;;;0.10;0.10;;;;;;;;;;5126775;27;20507;-50
2023/07/02 07:07:48;;;;;;;0.10;0.10;;;;;;;;;;5130168;28;20055;-49
2023/07/02 07:10:14;;;;;;;0.10;0.10;;;;;;;;;;5129107;28;20398;-49
2023/07/02 07:12:39;;;;;;;0.10;0.10;;;;;;;;;;5130425;28;20043;-49
2023/07/02 07:15:05;;;;;;;0.10;0.10;;;;;;;;;;5130197;28;20047;-50
2023/07/02 07:17:30;;;;;;;0.10;0.10;;;;;;;;;;5130447;28;20190;-49
2023/07/02 07:19:56;;;;;;;0.10;0.10;;;;;;;;;;5129606;28;20435;-50
2023/07/02 07:22:22;;;;;;;0.10;0.10;;;;;;;;;;5130362;28;20043;-50
2023/07/02 07:24:47;;;;;;;0.10;0.10;;;;;;;;;;5129876;28;20258;-49
2023/07/02 07:27:13;;;;;;;0.10;0.10;;;;;;;;;;5121686;27;20039;-50
2023/07/02 07:29:38;;;;;;;0.10;0.10;;;;;;;;;;5129643;28;20281;-49
2023/07/02 07:32:04;;;;;;;0.10;0.10;;;;;;;;;;5130017;28;20047;-50
2023/07/02 07:34:29;;;;;;;0.10;0.10;;;;;;;;;;5130577;28;20383;-49
2023/07/02 07:36:55;;;;;;;0.10;0.10;;;;;;;;;;5130431;28;20047;-50
2023/07/02 07:39:20;;;;;;;0.10;0.10;;;;;;;;;;5128848;28;20047;-48
2023/07/02 07:41:46;;;;;;;0.10;0.10;;;;;;;;;;5130086;27;20459;-49
2023/07/02 07:44:12;;;;;;;0.10;0.10;;;;;;;;;;5129994;28;20051;-48
2023/07/02 07:46:38;;;;;;;0.10;0.10;;;;;;;;;;5129360;28;20043;-48
2023/07/02 07:49:03;;;;;;;0.10;0.10;;;;;;;;;;5129835;28;20467;-49
2023/07/02 07:51:29;;;;;;;0.10;0.10;;;;;;;;;;5129699;28;20066;-50
2023/07/02 07:53:56;;;;;;;0.10;0.10;;;;;;;;;;5129888;28;20047;-50
2023/07/02 07:56:21;;;;;;;0.10;0.10;;;;;;;;;;5129028;27;20092;-49
2023/07/02 07:58:47;;;;;;;0.10;0.10;;;;;;;;;;5130141;27;20051;-48
2023/07/02 08:01:12;;;;;;;0.10;0.10;;;;;;;;;;5129689;27;20043;-49
2023/07/02 08:03:38;;;;;;;0.10;0.10;;;;;;;;;;5130176;28;20043;-50
2023/07/02 08:06:04;;;;;;;0.10;0.10;;;;;;;;;;5130023;28;20511;-49
2023/07/02 08:08:29;;;;;;;0.10;0.10;;;;;;;;;;5129629;28;20050;-49
2023/07/02 08:10:55;;;;;;;0.10;0.10;;;;;;;;;;5129092;28;20039;-50
2023/07/02 08:13:20;;;;;;;0.10;0.10;;;;;;;;;;5130312;28;20054;-49
2023/07/02 08:15:46;;;;;;;0.10;0.10;;;;;;;;;;5129898;28;20047;-49
2023/07/02 08:18:13;;;;;;;0.10;0.10;;;;;;;;;;5128748;27;20630;-47
2023/07/02 08:20:38;;;;;;;0.10;0.10;;;;;;;;;;5129408;28;20483;-50
2023/07/02 08:23:04;;;;;;;0.10;0.10;;;;;;;;;;5130157;28;20050;-50
2023/07/02 08:25:30;;;;;;;0.10;0.10;;;;;;;;;;5129903;28;20043;-50
2023/07/02 08:27:56;;;;;;;0.10;0.10;;;;;;;;;;5129210;27;20051;-50
2023/07/02 08:30:21;;;;;;;0.25;0.25;;;;;;;;;;5128190;28;20059;-50
2023/07/02 08:32:47;;;;;;;0.10;0.10;;;;;;;;;;5129707;28;20479;-47
2023/07/02 08:35:12;;;;;;;0.10;0.10;;;;;;;;;;5130056;27;20275;-50
2023/07/02 08:37:38;;;;;;;0.10;0.10;;;;;;;;;;5129609;27;20043;-49
2023/07/02 08:40:18;;;;;;;0.10;0.10;;;;;;;;;;5128810;27;20047;-49
2023/07/02 08:42:44;;;;;;;0.10;0.10;;;;;;;;;;5125664;28;20110;-47
2023/07/02 08:45:10;;;;;;;0.10;0.10;;;;;;;;;;5129368;27;20051;-45
2023/07/02 08:47:36;;;;;;;0.10;0.10;;;;;;;;;;5129432;27;20075;-45
2023/07/02 08:50:03;;;;;;;0.10;0.10;;;;;;;;;;5128619;27;20058;-45
2023/07/02 08:52:28;;;;;;;0.10;0.10;;;;;;;;;;5111206;28;20051;-47
2023/07/02 08:54:54;;;;;;;0.10;0.10;;;;;;;;;;5129383;28;20051;-44
2023/07/02 08:57:21;;;;;;;0.10;0.10;;;;;;;;;;5128921;28;20294;-49
2023/07/02 08:59:47;;;;;;;0.38;0.28;;;;;;;;;;5128776;28;20096;-45
2023/07/02 09:02:13;;;;;;;0.10;0.10;;;;;;;;;;5129035;27;20408;-45
2023/07/02 09:04:38;;;;;;;0.10;0.10;;;;;;;;;;5129238;28;20096;-45
2023/07/02 09:07:06;;;;;;;0.10;0.10;;;;;;;;;;5128766;28;20055;-45
2023/07/02 09:09:32;;;;;;;0.10;0.10;;;;;;;;;;5110470;28;20055;-45
2023/07/02 09:11:57;;;;;;;0.10;0.10;;;;;;;;;;5128769;28;20456;-49
2023/07/02 09:14:25;;;;;;;0.10;0.10;;;;;;;;;;5129214;28;20126;-49
2023/07/02 09:17:00;;;;;;;0.10;0.10;;;;;;;;;;5110342;28;20043;-50
2023/07/02 09:19:26;;;;;;;0.10;0.10;;;;;;;;;;5109879;28;20062;-49
2023/07/02 09:21:51;;;;;;;0.10;0.10;;;;;;;;;;5127970;28;20058;-50
2023/07/02 09:24:19;;;;;;;0.10;0.10;;;;;;;;;;5128526;28;20043;-49
2023/07/02 09:26:49;;;;;;;0.10;0.10;;;;;;;;;;5097317;28;20512;-48
2023/07/02 09:29:19;;;;;;;0.20;0.20;;;;;;;;;;5090355;28;20283;-49
2023/07/02 09:31:46;;;;;;;0.10;0.10;;;;;;;;;;5122387;28;20082;-47
2023/07/02 09:34:32;;;;;;;0.10;0.10;;;;;;;;;;5123570;28;20043;-49
2023/07/02 09:36:58;;;;;;;0.10;0.10;;;;;;;;;;5128128;27;20059;-48
2023/07/02 09:39:26;;;;;;;0.10;0.10;;;;;;;;;;5126138;28;20115;-50
2023/07/02 09:41:52;;;;;;;0.10;0.10;;;;;;;;;;5127739;27;20039;-49
2023/07/02 09:44:18;;;;;;;0.10;0.10;;;;;;;;;;5127830;28;20047;-49
2023/07/02 09:46:49;;;;;;;0.10;0.10;;;;;;;;;;5127693;28;20074;-50
2023/07/02 09:49:16;;;;;;;0.10;0.10;;;;;;;;;;5109701;28;20513;-49
2023/07/02 09:51:42;;;;;;;0.17;0.17;;;;;;;;;;5127570;28;20090;-47
2023/07/02 09:54:08;;;;;;;0.10;0.10;;;;;;;;;;5128293;28;20143;-49
2023/07/02 09:56:34;;;;;;;0.10;0.10;;;;;;;;;;5128086;28;20054;-49
2023/07/02 09:58:59;;;;;;;0.10;0.10;;;;;;;;;;5127377;28;20051;-49
2023/07/02 10:01:25;;;;;;;0.10;0.10;;;;;;;;;;5127446;27;20121;-50
2023/07/02 10:03:50;;;;;;;0.10;0.10;;;;;;;;;;5128376;28;20054;-47
2023/07/02 10:06:16;;;;;;;0.10;0.10;;;;;;;;;;5127820;28;20050;-49
2023/07/02 10:08:52;;;;;;;0.20;0.20;;;;;;;;;;5126955;28;20483;-50
2023/07/02 10:11:17;;;;;;;0.20;0.20;;;;;;;;;;5108606;28;20306;-49
2023/07/02 10:13:43;;;;;;;0.10;0.10;;;;;;;;;;5127802;28;20194;-49
2023/07/02 10:16:08;;;;;;;0.10;0.10;;;;;;;;;;5127887;28;20047;-49
2023/07/02 10:18:34;;;;;;;0.10;0.10;;;;;;;;;;5127375;28;20062;-50
2023/07/02 10:21:00;;;;;;;0.10;0.10;;;;;;;;;;5127192;28;20078;-48
2023/07/02 10:23:40;;;;;;;0.10;0.10;;;;;;;;;;5128060;28;20092;-49
2023/07/02 10:26:09;;;;;;;0.10;0.10;;;;;;;;;;5114398;27;20072;-49
2023/07/02 10:28:35;;;;;;;0.10;0.10;;;;;;;;;;5106963;28;20047;-49
2023/07/02 10:31:00;;;;;;;0.10;0.10;;;;;;;;;;5118598;28;20464;-48
2023/07/02 10:33:26;;;;;;;0.10;0.10;;;;;;;;;;5127010;27;20051;-48
2023/07/02 10:35:52;;;;;;;0.10;0.10;;;;;;;;;;5127007;28;20550;-49
2023/07/02 10:38:19;;;;;;;0.10;0.10;;;;;;;;;;5127450;28;20270;-49
2023/07/02 10:40:45;;;;;;;0.10;0.10;;;;;;;;;;5126101;27;20628;-50
2023/07/02 10:43:11;;;;;;;0.10;0.10;;;;;;;;;;5126965;28;20058;-49
2023/07/02 10:45:37;;;;;;;0.10;0.10;;;;;;;;;;5126269;28;20130;-49
2023/07/02 10:48:03;;;;;;;0.10;0.10;;;;;;;;;;5126934;28;20051;-49
2023/07/02 10:50:30;;;;;;;0.10;0.10;;;;;;;;;;5108492;28;20178;-49
2023/07/02 10:52:56;;;;;;;0.10;0.10;;;;;;;;;;5072906;28;21017;-48
2023/07/02 10:55:23;;;;;;;0.10;0.10;;;;;;;;;;5086410;28;20060;-49
2023/07/02 10:57:50;;;;;;;0.10;0.10;;;;;;;;;;5086760;28;20091;-49
2023/07/02 11:00:16;;;;;;;0.10;0.10;;;;;;;;;;5069020;28;20275;-49
2023/07/02 11:02:42;;;;;;;0.10;0.10;;;;;;;;;;5086158;28;20056;-49
2023/07/02 11:05:12;;;;;;;0.10;0.10;;;;;;;;;;5086458;28;20048;-49
2023/07/02 11:07:38;;;;;;;0.10;0.10;;;;;;;;;;5068426;28;20134;-50
2023/07/02 11:10:04;;;;;;;0.10;0.10;;;;;;;;;;5067401;28;20302;-48
2023/07/02 11:12:30;;;;;;;0.10;0.10;;;;;;;;;;5085954;28;20305;-49
2023/07/02 11:15:06;;;;;;;0.10;0.10;;;;;;;;;;5085457;28;20048;-49
2023/07/02 11:17:32;;;;;;;0.10;0.10;;;;;;;;;;5086187;28;20054;-48
2023/07/02 11:19:57;;;;;;;0.10;0.10;;;;;;;;;;5085473;28;20048;-48
2023/07/02 11:22:30;;;;;;;0.10;0.10;;;;;;;;;;5086145;28;20150;-50
2023/07/02 11:24:56;;;;;;;0.10;0.10;;;;;;;;;;5085827;28;20089;-47
2023/07/02 11:27:22;;;;;;;0.10;0.10;;;;;;;;;;5085852;28;20060;-49
2023/07/02 11:29:47;;;;;;;0.10;0.10;;;;;;;;;;5085295;28;20598;-48
2023/07/02 11:32:14;;;;;;;0.10;0.10;;;;;;;;;;5086020;28;20538;-49
2023/07/02 11:34:39;;;;;;;0.10;0.10;;;;;;;;;;5084535;28;20083;-49
2023/07/02 11:37:05;;;;;;;0.10;0.10;;;;;;;;;;5085704;28;20044;-50
2023/07/02 11:39:31;;;;;;;0.10;0.10;;;;;;;;;;5085592;28;20044;-50
2023/07/02 11:41:57;;;;;;;0.10;0.10;;;;;;;;;;5087967;28;20056;-50
2023/07/02 11:44:23;;;;;;;0.10;0.10;;;;;;;;;;5106379;28;20518;-49
2023/07/02 11:46:48;;;;;;;0.20;0.20;;;;;;;;;;5076204;28;20125;-50
2023/07/02 11:49:14;;;;;;;0.10;0.10;;;;;;;;;;5085827;28;20204;-49
2023/07/02 11:51:41;;;;;;;0.10;0.10;;;;;;;;;;5086043;28;20056;-50
2023/07/02 11:54:07;;;;;;;0.10;0.10;;;;;;;;;;5070102;28;20476;-48
2023/07/02 11:56:32;;;;;;;0.10;0.10;;;;;;;;;;5089212;28;20063;-50
2023/07/02 11:58:58;;;;;;;0.10;0.10;;;;;;;;;;5071071;28;20102;-49
2023/07/02 12:01:24;;;;;;;0.10;0.10;;;;;;;;;;5070382;28;20435;-50
2023/07/02 12:03:50;;;;;;;0.10;0.10;;;;;;;;;;5069422;28;20527;-48
2023/07/02 12:06:15;;;;;;;0.10;0.10;;;;;;;;;;5071102;28;20101;-50
2023/07/02 12:08:41;;;;;;;0.10;0.10;;;;;;;;;;5088665;28;20040;-49
2023/07/02 12:11:07;;;;;;;0.10;0.10;;;;;;;;;;5088463;28;20059;-49
2023/07/02 12:13:32;;;;;;;0.10;0.10;;;;;;;;;;5089250;28;20044;-49
2023/07/02 12:15:58;;;;;;;0.10;0.10;;;;;;;;;;5088853;28;20048;-48
2023/07/02 12:18:23;;;;;;;0.10;0.10;;;;;;;;;;5088817;28;20048;-49
2023/07/02 12:20:49;;;;;;;0.10;0.10;;;;;;;;;;5087975;28;20040;-49
2023/07/02 12:23:14;;;;;;;0.10;0.10;;;;;;;;;;5089039;28;20055;-49
2023/07/02 12:25:40;;;;;;;0.10;0.10;;;;;;;;;;5079894;28;20052;-50
2023/07/02 12:28:05;;;;;;;0.10;0.10;;;;;;;;;;5088148;28;20511;-49
2023/07/02 12:30:31;;;;;;;0.10;0.10;;;;;;;;;;5087964;28;20040;-48
2023/07/02 12:32:57;;;;;;;0.10;0.10;;;;;;;;;;5070437;28;20109;-49
2023/07/02 12:35:23;;;;;;;0.10;0.10;;;;;;;;;;5086509;28;20056;-49
2023/07/02 12:37:49;;;;;;;0.10;0.10;;;;;;;;;;5076155;28;20075;-49
2023/07/02 12:40:15;;;;;;;0.10;0.10;;;;;;;;;;5073332;28;20113;-49
2023/07/02 12:42:41;;;;;;;0.10;0.10;;;;;;;;;;5088361;28;20538;-50
2023/07/02 12:45:07;;;;;;;0.30;0.30;;;;;;;;;;5088315;28;20052;-49
2023/07/02 12:47:33;;;;;;;0.10;0.10;;;;;;;;;;5087842;28;20051;-49
2023/07/02 12:49:58;;;;;;;0.10;0.10;;;;;;;;;;5091133;28;20048;-49
2023/07/02 12:52:24;;;;;;;0.10;0.10;;;;;;;;;;5108386;28;20078;-48
2023/07/02 12:54:49;;;;;;;0.10;0.10;;;;;;;;;;5108736;28;20057;-48
2023/07/02 12:57:15;;;;;;;0.10;0.10;;;;;;;;;;5086004;28;20058;-49
2023/07/02 12:59:43;;;;;;;0.10;0.10;;;;;;;;;;5088855;28;20105;-49
2023/07/02 13:02:09;;;;;;;0.10;0.10;;;;;;;;;;5108262;28;20483;-47
2023/07/02 13:04:35;;;;;;;0.10;0.10;;;;;;;;;;5092828;28;20044;-50
2023/07/02 13:07:01;;;;;;;0.10;0.10;;;;;;;;;;5087694;28;20105;-50
2023/07/02 13:09:26;;;;;;;0.10;0.10;;;;;;;;;;5087372;28;20052;-49
2023/07/02 13:11:52;;;;;;;0.10;0.10;;;;;;;;;;5087413;28;20067;-50
2023/07/02 13:14:17;;;;;;;0.10;0.10;;;;;;;;;;5087694;28;20044;-50
2023/07/02 13:16:43;;;;;;;0.10;0.10;;;;;;;;;;5087702;28;20051;-48
2023/07/02 13:19:08;;;;;;;0.10;0.10;;;;;;;;;;5087608;28;20427;-49
2023/07/02 13:21:34;;;;;;;0.10;0.10;;;;;;;;;;5087322;28;20048;-50
2023/07/02 13:23:59;;;;;;;0.10;0.10;;;;;;;;;;5081621;28;20452;-50
2023/07/02 13:26:25;;;;;;;0.10;0.10;;;;;;;;;;5087151;28;20044;-50
2023/07/02 13:28:50;;;;;;;0.10;0.10;;;;;;;;;;5087320;28;20139;-49
2023/07/02 13:31:16;;;;;;;0.10;0.10;;;;;;;;;;5101462;28;20066;-49
2023/07/02 13:33:42;;;;;;;0.10;0.10;;;;;;;;;;5107912;28;20098;-49
2023/07/02 13:36:08;;;;;;;0.10;0.10;;;;;;;;;;5090029;28;20082;-48
2023/07/02 13:38:34;;;;;;;0.10;0.10;;;;;;;;;;5069331;28;20415;-48
2023/07/02 13:40:59;;;;;;;0.10;0.10;;;;;;;;;;5079865;28;20039;-49
2023/07/02 13:43:25;;;;;;;0.10;0.10;;;;;;;;;;5108333;28;20512;-49
2023/07/02 13:45:50;;;;;;;0.10;0.10;;;;;;;;;;5108080;28;20047;-49
2023/07/02 13:48:16;;;;;;;0.10;0.10;;;;;;;;;;5107655;28;20051;-50
2023/07/02 13:50:42;;;;;;;0.10;0.10;;;;;;;;;;5092996;28;20108;-49
2023/07/02 13:53:08;;;;;;;0.15;0.15;;;;;;;;;;5087734;28;20397;-49
2023/07/02 13:55:33;;;;;;;0.10;0.10;;;;;;;;;;5069311;28;20603;-50
2023/07/02 13:57:59;;;;;;;0.10;0.10;;;;;;;;;;5086734;28;20458;-50
2023/07/02 14:00:27;;;;;;;0.10;0.10;;;;;;;;;;5087056;28;20396;-49
2023/07/02 14:02:52;;;;;;;0.10;0.10;;;;;;;;;;5087575;28;20054;-49
2023/07/02 14:05:18;;;;;;;0.10;0.10;;;;;;;;;;5068977;28;20057;-50
2023/07/02 14:07:44;;;;;;;0.10;0.10;;;;;;;;;;5086958;28;20052;-49
2023/07/02 14:10:10;;;;;;;0.10;0.10;;;;;;;;;;5068505;28;20047;-50
2023/07/02 14:12:35;;;;;;;0.10;0.10;;;;;;;;;;5087241;28;20056;-49
2023/07/02 14:15:01;;;;;;;0.10;0.10;;;;;;;;;;5086916;28;20055;-50
2023/07/02 14:17:26;;;;;;;0.25;0.20;;;;;;;;;;5086938;28;20060;-49
2023/07/02 14:19:52;;;;;;;0.10;0.10;;;;;;;;;;5086610;28;20478;-50
2023/07/02 14:22:18;;;;;;;0.10;0.10;;;;;;;;;;5086960;28;20053;-49
2023/07/02 14:24:43;;;;;;;0.10;0.10;;;;;;;;;;5081216;28;20047;-50
2023/07/02 14:27:09;;;;;;;0.10;0.10;;;;;;;;;;5087118;28;20055;-49
2023/07/02 14:29:34;;;;;;;0.10;0.10;;;;;;;;;;5086722;28;20047;-49
2023/07/02 14:32:00;;;;;;;0.10;0.10;;;;;;;;;;5106614;28;20075;-49
2023/07/02 14:34:25;;;;;;;0.10;0.10;;;;;;;;;;5107383;28;20112;-49
2023/07/02 14:36:51;;;;;;;0.10;0.10;;;;;;;;;;5106768;28;20080;-49